Ayrshire, Indiana
Current Conditions -  °F | °C
As of 6:55 AM on Friday 19 Dec 2014 (Local Time) from KHNB Reporting Station
Broken Clouds Broken Clouds  
Wind Chill: 21°   Ceiling: 5000
Heat Index: 27°   Visibility: 7mi
Dew Point: 21°   Wind: 5mph
Humidity: 80%   Direction: 30°NNE
Pressure: 30.33"   Gusts: NA
Location:  38.3488°N, 87.2217°W
Report Text: KHNB 191255Z AUTO 03004KT 7SM BKN050 M03/M06 A3033 RMK AO1
Loading
Personal Weather Stations






























Interactive Weather Map New forecast layout! Learn more

10-Day Weather Forecast

Advertisements
Track Severe Weather on mobile